Allen Park, Michigan
Current Conditions -  °F | °C
As of 7:53 AM on Thursday 30 Oct 2014 (Local Time) from KDTW Reporting Station
Scattered Clouds Scattered Clouds  
Wind Chill: 32°   Ceiling: Unl
Heat Index: 36°   Visibility: 10mi
Dew Point: 34°   Wind: 5mph
Humidity: 93%   Direction: 310°NW
Pressure: 30.13"   Gusts: NA
Location:  42.26°N, 83.22°W
Report Text: KDTW 301153Z 31004KT 10SM FEW027 SCT085 02/01 A3013 RMK AO2 SLP208 T00220011 10050 20022 50005
Loading
Personal Weather Stations






























Interactive Weather Map
Tropical Storm Tracking
New forecast layout! Learn more

10-Day Weather Forecast

Advertisements
Track Severe Weather on mobile